sensor_id;sensor_type;location;lat;lon;timestamp;P1;durP1;ratioP1;P2;durP2;ratioP2
45784;SDS011;31489;51.404;5.474;2023-07-02T00:01:09;14.43;;;6.75;;
45784;SDS011;31489;51.404;5.474;2023-07-02T00:03:37;12.40;;;6.22;;
45784;SDS011;31489;51.404;5.474;2023-07-02T00:06:03;12.98;;;6.47;;
45784;SDS011;31489;51.404;5.474;2023-07-02T00:08:28;15.05;;;6.45;;
45784;SDS011;31489;51.404;5.474;2023-07-02T00:10:54;15.48;;;6.80;;
45784;SDS011;31489;51.404;5.474;2023-07-02T00:13:20;14.50;;;7.28;;
45784;SDS011;31489;51.404;5.474;2023-07-02T00:15:45;13.85;;;7.55;;
45784;SDS011;31489;51.404;5.474;2023-07-02T00:18:11;20.05;;;7.95;;
45784;SDS011;31489;51.404;5.474;2023-07-02T00:20:41;15.30;;;7.85;;
45784;SDS011;31489;51.404;5.474;2023-07-02T00:23:06;14.20;;;7.50;;
45784;SDS011;31489;51.404;5.474;2023-07-02T00:25:33;16.38;;;8.30;;
45784;SDS011;31489;51.404;5.474;2023-07-02T00:27:59;16.73;;;7.85;;
45784;SDS011;31489;51.404;5.474;2023-07-02T00:30:25;15.15;;;8.02;;
45784;SDS011;31489;51.404;5.474;2023-07-02T00:32:51;16.08;;;8.05;;
45784;SDS011;31489;51.404;5.474;2023-07-02T00:35:16;16.35;;;8.38;;
45784;SDS011;31489;51.404;5.474;2023-07-02T00:37:42;18.33;;;8.48;;
45784;SDS011;31489;51.404;5.474;2023-07-02T00:40:08;15.80;;;8.52;;
45784;SDS011;31489;51.404;5.474;2023-07-02T00:42:34;17.45;;;9.02;;
45784;SDS011;31489;51.404;5.474;2023-07-02T00:44:59;17.85;;;8.73;;
45784;SDS011;31489;51.404;5.474;2023-07-02T00:47:28;20.45;;;8.43;;
45784;SDS011;31489;51.404;5.474;2023-07-02T00:49:58;18.05;;;8.43;;
45784;SDS011;31489;51.404;5.474;2023-07-02T00:52:24;17.13;;;8.98;;
45784;SDS011;31489;51.404;5.474;2023-07-02T00:54:51;16.17;;;8.77;;
45784;SDS011;31489;51.404;5.474;2023-07-02T00:57:16;15.93;;;9.35;;
45784;SDS011;31489;51.404;5.474;2023-07-02T00:59:42;21.55;;;8.90;;
45784;SDS011;31489;51.404;5.474;2023-07-02T01:02:08;18.75;;;9.23;;
45784;SDS011;31489;51.404;5.474;2023-07-02T01:04:34;18.00;;;9.48;;
45784;SDS011;31489;51.404;5.474;2023-07-02T01:06:59;18.35;;;9.02;;
45784;SDS011;31489;51.404;5.474;2023-07-02T01:09:25;21.55;;;10.00;;
45784;SDS011;31489;51.404;5.474;2023-07-02T01:11:58;20.88;;;10.43;;
45784;SDS011;31489;51.404;5.474;2023-07-02T01:14:30;19.58;;;10.18;;
45784;SDS011;31489;51.404;5.474;2023-07-02T01:16:59;15.18;;;10.00;;
45784;SDS011;31489;51.404;5.474;2023-07-02T01:19:38;17.88;;;10.82;;
45784;SDS011;31489;51.404;5.474;2023-07-02T01:22:09;19.35;;;10.32;;
45784;SDS011;31489;51.404;5.474;2023-07-02T01:24:36;20.48;;;10.68;;
45784;SDS011;31489;51.404;5.474;2023-07-02T01:27:04;16.88;;;10.43;;
45784;SDS011;31489;51.404;5.474;2023-07-02T01:29:30;23.65;;;11.48;;
45784;SDS011;31489;51.404;5.474;2023-07-02T01:31:56;19.33;;;10.20;;
45784;SDS011;31489;51.404;5.474;2023-07-02T01:34:22;25.83;;;11.38;;
45784;SDS011;31489;51.404;5.474;2023-07-02T01:36:48;20.90;;;11.00;;
45784;SDS011;31489;51.404;5.474;2023-07-02T01:39:13;18.60;;;11.05;;
45784;SDS011;31489;51.404;5.474;2023-07-02T01:41:44;21.92;;;11.57;;
45784;SDS011;31489;51.404;5.474;2023-07-02T01:44:16;21.67;;;11.73;;
45784;SDS011;31489;51.404;5.474;2023-07-02T01:46:43;24.05;;;11.88;;
45784;SDS011;31489;51.404;5.474;2023-07-02T01:49:09;22.85;;;12.50;;
45784;SDS011;31489;51.404;5.474;2023-07-02T01:51:35;25.50;;;12.93;;
45784;SDS011;31489;51.404;5.474;2023-07-02T01:54:01;21.80;;;12.45;;
45784;SDS011;31489;51.404;5.474;2023-07-02T01:56:26;25.30;;;13.35;;
45784;SDS011;31489;51.404;5.474;2023-07-02T01:58:53;26.08;;;12.82;;
45784;SDS011;31489;51.404;5.474;2023-07-02T02:01:18;24.83;;;13.52;;
45784;SDS011;31489;51.404;5.474;2023-07-02T02:03:44;24.00;;;13.18;;
45784;SDS011;31489;51.404;5.474;2023-07-02T02:06:10;22.40;;;13.48;;
45784;SDS011;31489;51.404;5.474;2023-07-02T02:08:35;27.30;;;13.98;;
45784;SDS011;31489;51.404;5.474;2023-07-02T02:11:01;24.48;;;13.98;;
45784;SDS011;31489;51.404;5.474;2023-07-02T02:13:26;24.67;;;13.48;;
45784;SDS011;31489;51.404;5.474;2023-07-02T02:15:53;22.38;;;13.52;;
45784;SDS011;31489;51.404;5.474;2023-07-02T02:18:19;25.13;;;14.55;;
45784;SDS011;31489;51.404;5.474;2023-07-02T02:20:45;27.85;;;13.88;;
45784;SDS011;31489;51.404;5.474;2023-07-02T02:23:10;21.45;;;13.10;;
45784;SDS011;31489;51.404;5.474;2023-07-02T02:25:36;26.25;;;14.02;;
45784;SDS011;31489;51.404;5.474;2023-07-02T02:28:01;29.55;;;14.40;;
45784;SDS011;31489;51.404;5.474;2023-07-02T02:30:27;27.60;;;14.10;;
45784;SDS011;31489;51.404;5.474;2023-07-02T02:32:53;25.83;;;14.00;;
45784;SDS011;31489;51.404;5.474;2023-07-02T02:35:18;27.10;;;14.50;;
45784;SDS011;31489;51.404;5.474;2023-07-02T02:37:44;28.88;;;14.23;;
45784;SDS011;31489;51.404;5.474;2023-07-02T02:40:10;25.63;;;14.68;;
45784;SDS011;31489;51.404;5.474;2023-07-02T02:42:36;25.35;;;15.00;;
45784;SDS011;31489;51.404;5.474;2023-07-02T02:45:03;29.77;;;15.88;;
45784;SDS011;31489;51.404;5.474;2023-07-02T02:47:29;27.30;;;15.20;;
45784;SDS011;31489;51.404;5.474;2023-07-02T02:49:54;26.70;;;15.35;;
45784;SDS011;31489;51.404;5.474;2023-07-02T02:52:20;24.52;;;15.27;;
45784;SDS011;31489;51.404;5.474;2023-07-02T02:54:45;24.15;;;14.48;;
45784;SDS011;31489;51.404;5.474;2023-07-02T02:57:11;26.88;;;14.40;;
45784;SDS011;31489;51.404;5.474;2023-07-02T02:59:38;29.55;;;15.65;;
45784;SDS011;31489;51.404;5.474;2023-07-02T03:02:04;28.13;;;14.95;;
45784;SDS011;31489;51.404;5.474;2023-07-02T03:04:30;26.98;;;15.45;;
45784;SDS011;31489;51.404;5.474;2023-07-02T03:06:55;30.90;;;16.20;;
45784;SDS011;31489;51.404;5.474;2023-07-02T03:09:21;25.88;;;16.10;;
45784;SDS011;31489;51.404;5.474;2023-07-02T03:11:47;24.77;;;15.55;;
45784;SDS011;31489;51.404;5.474;2023-07-02T03:14:13;29.27;;;15.25;;
45784;SDS011;31489;51.404;5.474;2023-07-02T03:16:40;28.02;;;15.80;;
45784;SDS011;31489;51.404;5.474;2023-07-02T03:19:06;26.48;;;15.27;;
45784;SDS011;31489;51.404;5.474;2023-07-02T03:21:32;29.30;;;15.98;;
45784;SDS011;31489;51.404;5.474;2023-07-02T03:23:57;27.65;;;15.40;;
45784;SDS011;31489;51.404;5.474;2023-07-02T03:26:23;31.13;;;17.60;;
45784;SDS011;31489;51.404;5.474;2023-07-02T03:28:49;30.13;;;16.08;;
45784;SDS011;31489;51.404;5.474;2023-07-02T03:31:14;34.97;;;15.85;;
45784;SDS011;31489;51.404;5.474;2023-07-02T03:33:40;26.63;;;15.73;;
45784;SDS011;31489;51.404;5.474;2023-07-02T03:36:06;27.25;;;15.35;;
45784;SDS011;31489;51.404;5.474;2023-07-02T03:38:31;31.48;;;16.92;;
45784;SDS011;31489;51.404;5.474;2023-07-02T03:40:57;30.23;;;16.25;;
45784;SDS011;31489;51.404;5.474;2023-07-02T03:43:23;30.63;;;14.88;;
45784;SDS011;31489;51.404;5.474;2023-07-02T03:45:51;28.08;;;15.60;;
45784;SDS011;31489;51.404;5.474;2023-07-02T03:48:17;34.40;;;16.63;;
45784;SDS011;31489;51.404;5.474;2023-07-02T03:50:43;29.08;;;15.32;;
45784;SDS011;31489;51.404;5.474;2023-07-02T03:53:08;26.73;;;14.38;;
45784;SDS011;31489;51.404;5.474;2023-07-02T03:55:35;28.45;;;14.65;;
45784;SDS011;31489;51.404;5.474;2023-07-02T03:58:01;28.23;;;14.95;;
45784;SDS011;31489;51.404;5.474;2023-07-02T04:00:27;25.00;;;15.05;;
45784;SDS011;31489;51.404;5.474;2023-07-02T04:02:52;28.73;;;15.13;;
45784;SDS011;31489;51.404;5.474;2023-07-02T04:05:18;24.70;;;14.50;;
45784;SDS011;31489;51.404;5.474;2023-07-02T04:07:45;28.92;;;15.80;;
45784;SDS011;31489;51.404;5.474;2023-07-02T04:10:10;28.90;;;15.02;;
45784;SDS011;31489;51.404;5.474;2023-07-02T04:12:36;28.33;;;15.70;;
45784;SDS011;31489;51.404;5.474;2023-07-02T04:15:02;29.30;;;15.50;;
45784;SDS011;31489;51.404;5.474;2023-07-02T04:17:28;29.33;;;14.93;;
45784;SDS011;31489;51.404;5.474;2023-07-02T04:19:54;30.80;;;14.75;;
45784;SDS011;31489;51.404;5.474;2023-07-02T04:22:20;26.90;;;15.50;;
45784;SDS011;31489;51.404;5.474;2023-07-02T04:24:45;26.40;;;15.98;;
45784;SDS011;31489;51.404;5.474;2023-07-02T04:27:14;29.00;;;15.82;;
45784;SDS011;31489;51.404;5.474;2023-07-02T04:29:42;30.90;;;15.75;;
45784;SDS011;31489;51.404;5.474;2023-07-02T04:32:08;27.13;;;15.68;;
45784;SDS011;31489;51.404;5.474;2023-07-02T04:34:34;30.40;;;15.93;;
45784;SDS011;31489;51.404;5.474;2023-07-02T04:37:01;26.38;;;15.15;;
45784;SDS011;31489;51.404;5.474;2023-07-02T04:39:30;36.25;;;16.75;;
45784;SDS011;31489;51.404;5.474;2023-07-02T04:41:56;28.63;;;15.73;;
45784;SDS011;31489;51.404;5.474;2023-07-02T04:44:21;28.35;;;16.02;;
45784;SDS011;31489;51.404;5.474;2023-07-02T04:46:58;31.60;;;16.08;;
45784;SDS011;31489;51.404;5.474;2023-07-02T04:49:24;31.35;;;15.45;;
45784;SDS011;31489;51.404;5.474;2023-07-02T04:51:50;29.70;;;14.93;;
45784;SDS011;31489;51.404;5.474;2023-07-02T04:54:16;30.48;;;14.75;;
45784;SDS011;31489;51.404;5.474;2023-07-02T04:56:41;26.48;;;14.80;;
45784;SDS011;31489;51.404;5.474;2023-07-02T04:59:07;24.95;;;14.40;;
45784;SDS011;31489;51.404;5.474;2023-07-02T05:01:32;30.27;;;14.88;;
45784;SDS011;31489;51.404;5.474;2023-07-02T05:03:58;26.08;;;14.63;;
45784;SDS011;31489;51.404;5.474;2023-07-02T05:06:24;25.75;;;13.32;;
45784;SDS011;31489;51.404;5.474;2023-07-02T05:08:49;24.48;;;13.30;;
45784;SDS011;31489;51.404;5.474;2023-07-02T05:11:15;25.55;;;14.57;;
45784;SDS011;31489;51.404;5.474;2023-07-02T05:13:40;26.52;;;13.82;;
45784;SDS011;31489;51.404;5.474;2023-07-02T05:16:06;27.58;;;13.93;;
45784;SDS011;31489;51.404;5.474;2023-07-02T05:18:31;25.77;;;13.20;;
45784;SDS011;31489;51.404;5.474;2023-07-02T05:20:57;23.40;;;13.30;;
45784;SDS011;31489;51.404;5.474;2023-07-02T05:23:23;25.23;;;13.30;;
45784;SDS011;31489;51.404;5.474;2023-07-02T05:25:48;22.77;;;11.98;;
45784;SDS011;31489;51.404;5.474;2023-07-02T05:28:14;22.95;;;12.50;;
45784;SDS011;31489;51.404;5.474;2023-07-02T05:30:39;21.58;;;11.88;;
45784;SDS011;31489;51.404;5.474;2023-07-02T05:33:05;23.90;;;12.40;;
45784;SDS011;31489;51.404;5.474;2023-07-02T05:35:30;22.00;;;11.40;;
45784;SDS011;31489;51.404;5.474;2023-07-02T05:37:56;19.83;;;10.88;;
45784;SDS011;31489;51.404;5.474;2023-07-02T05:40:22;24.50;;;11.50;;
45784;SDS011;31489;51.404;5.474;2023-07-02T05:42:47;20.98;;;10.57;;
45784;SDS011;31489;51.404;5.474;2023-07-02T05:45:13;25.33;;;11.13;;
45784;SDS011;31489;51.404;5.474;2023-07-02T05:47:41;23.13;;;10.98;;
45784;SDS011;31489;51.404;5.474;2023-07-02T05:50:07;28.55;;;11.88;;
45784;SDS011;31489;51.404;5.474;2023-07-02T05:52:33;22.10;;;12.13;;
45784;SDS011;31489;51.404;5.474;2023-07-02T05:54:59;22.33;;;11.75;;
45784;SDS011;31489;51.404;5.474;2023-07-02T05:57:24;20.17;;;11.10;;
45784;SDS011;31489;51.404;5.474;2023-07-02T05:59:50;23.70;;;11.85;;
45784;SDS011;31489;51.404;5.474;2023-07-02T06:02:15;25.33;;;11.95;;
45784;SDS011;31489;51.404;5.474;2023-07-02T06:04:41;23.02;;;12.00;;
45784;SDS011;31489;51.404;5.474;2023-07-02T06:07:07;24.20;;;11.40;;
45784;SDS011;31489;51.404;5.474;2023-07-02T06:09:32;23.15;;;10.63;;
45784;SDS011;31489;51.404;5.474;2023-07-02T06:11:58;18.75;;;10.73;;
45784;SDS011;31489;51.404;5.474;2023-07-02T06:14:24;19.33;;;10.40;;
45784;SDS011;31489;51.404;5.474;2023-07-02T06:16:50;20.27;;;10.88;;
45784;SDS011;31489;51.404;5.474;2023-07-02T06:19:17;20.80;;;10.20;;
45784;SDS011;31489;51.404;5.474;2023-07-02T06:21:43;22.35;;;10.30;;
45784;SDS011;31489;51.404;5.474;2023-07-02T06:24:08;23.30;;;9.98;;
45784;SDS011;31489;51.404;5.474;2023-07-02T06:26:34;17.45;;;8.25;;
45784;SDS011;31489;51.404;5.474;2023-07-02T06:28:59;17.05;;;7.93;;
45784;SDS011;31489;51.404;5.474;2023-07-02T06:31:25;15.65;;;7.88;;
45784;SDS011;31489;51.404;5.474;2023-07-02T06:33:51;14.48;;;7.45;;
45784;SDS011;31489;51.404;5.474;2023-07-02T06:36:16;19.00;;;8.30;;
45784;SDS011;31489;51.404;5.474;2023-07-02T06:38:42;14.55;;;6.80;;
45784;SDS011;31489;51.404;5.474;2023-07-02T06:41:08;14.02;;;6.78;;
45784;SDS011;31489;51.404;5.474;2023-07-02T06:43:34;15.27;;;7.00;;
45784;SDS011;31489;51.404;5.474;2023-07-02T06:46:00;16.48;;;7.55;;
45784;SDS011;31489;51.404;5.474;2023-07-02T06:48:25;18.33;;;7.65;;
45784;SDS011;31489;51.404;5.474;2023-07-02T06:50:51;17.85;;;7.90;;
45784;SDS011;31489;51.404;5.474;2023-07-02T06:53:16;17.92;;;7.32;;
45784;SDS011;31489;51.404;5.474;2023-07-02T06:55:42;19.80;;;7.90;;
45784;SDS011;31489;51.404;5.474;2023-07-02T06:58:08;20.75;;;7.30;;
45784;SDS011;31489;51.404;5.474;2023-07-02T07:00:33;18.77;;;7.38;;
45784;SDS011;31489;51.404;5.474;2023-07-02T07:03:05;14.80;;;6.93;;
45784;SDS011;31489;51.404;5.474;2023-07-02T07:05:31;15.80;;;7.63;;
45784;SDS011;31489;51.404;5.474;2023-07-02T07:07:57;17.73;;;8.07;;
45784;SDS011;31489;51.404;5.474;2023-07-02T07:10:23;21.30;;;8.38;;
45784;SDS011;31489;51.404;5.474;2023-07-02T07:12:49;15.63;;;7.82;;
45784;SDS011;31489;51.404;5.474;2023-07-02T07:15:14;17.50;;;8.10;;
45784;SDS011;31489;51.404;5.474;2023-07-02T07:17:40;15.32;;;7.40;;
45784;SDS011;31489;51.404;5.474;2023-07-02T07:20:06;20.58;;;7.63;;
45784;SDS011;31489;51.404;5.474;2023-07-02T07:22:33;18.88;;;7.70;;
45784;SDS011;31489;51.404;5.474;2023-07-02T07:24:59;17.35;;;7.63;;
45784;SDS011;31489;51.404;5.474;2023-07-02T07:27:25;13.70;;;7.18;;
45784;SDS011;31489;51.404;5.474;2023-07-02T07:29:50;22.10;;;7.60;;
45784;SDS011;31489;51.404;5.474;2023-07-02T07:32:16;15.40;;;7.38;;
45784;SDS011;31489;51.404;5.474;2023-07-02T07:34:42;16.30;;;6.63;;
45784;SDS011;31489;51.404;5.474;2023-07-02T07:37:08;17.42;;;7.32;;
45784;SDS011;31489;51.404;5.474;2023-07-02T07:39:33;15.80;;;6.90;;
45784;SDS011;31489;51.404;5.474;2023-07-02T07:41:59;16.02;;;6.90;;
45784;SDS011;31489;51.404;5.474;2023-07-02T07:44:25;14.98;;;6.68;;
45784;SDS011;31489;51.404;5.474;2023-07-02T07:46:54;13.98;;;6.45;;
45784;SDS011;31489;51.404;5.474;2023-07-02T07:49:21;14.55;;;6.53;;
45784;SDS011;31489;51.404;5.474;2023-07-02T07:51:47;12.45;;;6.55;;
45784;SDS011;31489;51.404;5.474;2023-07-02T07:54:12;14.80;;;6.85;;
45784;SDS011;31489;51.404;5.474;2023-07-02T07:56:38;12.38;;;5.85;;
45784;SDS011;31489;51.404;5.474;2023-07-02T07:59:04;15.45;;;6.50;;
45784;SDS011;31489;51.404;5.474;2023-07-02T08:01:30;14.95;;;6.30;;
45784;SDS011;31489;51.404;5.474;2023-07-02T08:03:55;11.65;;;5.80;;
45784;SDS011;31489;51.404;5.474;2023-07-02T08:06:21;12.68;;;6.45;;
45784;SDS011;31489;51.404;5.474;2023-07-02T08:08:47;13.82;;;6.35;;
45784;SDS011;31489;51.404;5.474;2023-07-02T08:11:13;10.73;;;6.45;;
45784;SDS011;31489;51.404;5.474;2023-07-02T08:13:39;12.98;;;6.35;;
45784;SDS011;31489;51.404;5.474;2023-07-02T08:16:04;15.93;;;6.70;;
45784;SDS011;31489;51.404;5.474;2023-07-02T08:18:30;12.80;;;5.95;;
45784;SDS011;31489;51.404;5.474;2023-07-02T08:20:56;9.73;;;5.88;;
45784;SDS011;31489;51.404;5.474;2023-07-02T08:23:21;10.85;;;5.88;;
45784;SDS011;31489;51.404;5.474;2023-07-02T08:25:47;11.93;;;5.55;;
45784;SDS011;31489;51.404;5.474;2023-07-02T08:28:13;11.00;;;5.60;;
45784;SDS011;31489;51.404;5.474;2023-07-02T08:30:38;12.35;;;6.18;;
45784;SDS011;31489;51.404;5.474;2023-07-02T08:33:04;11.43;;;5.72;;
45784;SDS011;31489;51.404;5.474;2023-07-02T08:35:29;12.35;;;5.88;;
45784;SDS011;31489;51.404;5.474;2023-07-02T08:37:55;12.98;;;6.10;;
45784;SDS011;31489;51.404;5.474;2023-07-02T08:40:21;10.65;;;5.80;;
45784;SDS011;31489;51.404;5.474;2023-07-02T08:42:47;14.13;;;5.63;;
45784;SDS011;31489;51.404;5.474;2023-07-02T08:45:16;11.98;;;6.18;;
45784;SDS011;31489;51.404;5.474;2023-07-02T08:47:43;13.07;;;5.80;;
45784;SDS011;31489;51.404;5.474;2023-07-02T08:50:10;14.65;;;5.40;;
45784;SDS011;31489;51.404;5.474;2023-07-02T08:52:37;14.57;;;7.57;;
45784;SDS011;31489;51.404;5.474;2023-07-02T08:55:03;11.57;;;5.90;;
45784;SDS011;31489;51.404;5.474;2023-07-02T08:57:28;14.10;;;5.68;;
45784;SDS011;31489;51.404;5.474;2023-07-02T08:59:54;10.68;;;5.80;;
45784;SDS011;31489;51.404;5.474;2023-07-02T09:02:29;13.45;;;5.70;;
45784;SDS011;31489;51.404;5.474;2023-07-02T09:05:01;11.73;;;5.68;;
45784;SDS011;31489;51.404;5.474;2023-07-02T09:07:28;12.77;;;6.03;;
45784;SDS011;31489;51.404;5.474;2023-07-02T09:09:53;13.20;;;5.97;;
45784;SDS011;31489;51.404;5.474;2023-07-02T09:14:53;11.93;;;5.57;;
45784;SDS011;31489;51.404;5.474;2023-07-02T09:17:31;11.00;;;5.35;;
45784;SDS011;31489;51.404;5.474;2023-07-02T09:19:58;12.15;;;5.47;;
45784;SDS011;31489;51.404;5.474;2023-07-02T09:22:30;10.75;;;4.88;;
45784;SDS011;31489;51.404;5.474;2023-07-02T09:24:56;10.80;;;5.72;;
45784;SDS011;31489;51.404;5.474;2023-07-02T09:27:36;12.77;;;5.32;;
45784;SDS011;31489;51.404;5.474;2023-07-02T09:30:10;9.45;;;5.43;;
45784;SDS011;31489;51.404;5.474;2023-07-02T09:32:39;9.88;;;5.25;;
45784;SDS011;31489;51.404;5.474;2023-07-02T09:35:05;12.60;;;6.65;;
45784;SDS011;31489;51.404;5.474;2023-07-02T09:37:31;11.55;;;5.78;;
45784;SDS011;31489;51.404;5.474;2023-07-02T09:39:57;13.50;;;5.45;;
45784;SDS011;31489;51.404;5.474;2023-07-02T09:42:24;11.27;;;5.57;;
45784;SDS011;31489;51.404;5.474;2023-07-02T09:44:57;12.45;;;5.57;;
45784;SDS011;31489;51.404;5.474;2023-07-02T09:47:23;12.98;;;5.90;;
45784;SDS011;31489;51.404;5.474;2023-07-02T09:49:54;10.48;;;5.57;;
45784;SDS011;31489;51.404;5.474;2023-07-02T09:52:23;10.13;;;5.35;;
45784;SDS011;31489;51.404;5.474;2023-07-02T09:54:50;18.77;;;12.75;;
45784;SDS011;31489;51.404;5.474;2023-07-02T09:57:16;11.80;;;6.32;;
45784;SDS011;31489;51.404;5.474;2023-07-02T09:59:42;9.90;;;5.05;;
45784;SDS011;31489;51.404;5.474;2023-07-02T10:02:11;10.85;;;5.72;;
45784;SDS011;31489;51.404;5.474;2023-07-02T10:07:06;9.32;;;5.10;;
45784;SDS011;31489;51.404;5.474;2023-07-02T10:09:39;9.10;;;5.05;;
45784;SDS011;31489;51.404;5.474;2023-07-02T10:12:16;10.65;;;5.55;;
45784;SDS011;31489;51.404;5.474;2023-07-02T10:14:42;8.93;;;5.20;;
45784;SDS011;31489;51.404;5.474;2023-07-02T10:17:08;7.45;;;4.47;;
45784;SDS011;31489;51.404;5.474;2023-07-02T10:19:34;11.48;;;5.40;;
45784;SDS011;31489;51.404;5.474;2023-07-02T10:22:03;15.88;;;6.18;;
45784;SDS011;31489;51.404;5.474;2023-07-02T10:24:29;10.93;;;5.65;;
45784;SDS011;31489;51.404;5.474;2023-07-02T10:26:57;10.98;;;5.53;;
45784;SDS011;31489;51.404;5.474;2023-07-02T10:29:24;9.70;;;5.35;;
45784;SDS011;31489;51.404;5.474;2023-07-02T10:31:52;11.82;;;5.50;;
45784;SDS011;31489;51.404;5.474;2023-07-02T10:34:28;11.55;;;6.07;;
45784;SDS011;31489;51.404;5.474;2023-07-02T10:36:59;10.73;;;5.32;;
45784;SDS011;31489;51.404;5.474;2023-07-02T10:39:31;9.68;;;5.15;;
45784;SDS011;31489;51.404;5.474;2023-07-02T10:42:07;9.95;;;5.45;;
45784;SDS011;31489;51.404;5.474;2023-07-02T10:44:33;13.13;;;5.22;;
45784;SDS011;31489;51.404;5.474;2023-07-02T10:46:59;9.55;;;5.45;;
45784;SDS011;31489;51.404;5.474;2023-07-02T10:49:32;10.20;;;5.63;;
45784;SDS011;31489;51.404;5.474;2023-07-02T10:52:01;11.45;;;6.20;;
45784;SDS011;31489;51.404;5.474;2023-07-02T10:54:41;12.48;;;5.45;;
45784;SDS011;31489;51.404;5.474;2023-07-02T10:57:08;9.55;;;5.32;;
45784;SDS011;31489;51.404;5.474;2023-07-02T10:59:35;12.60;;;5.53;;
45784;SDS011;31489;51.404;5.474;2023-07-02T11:02:01;15.20;;;6.35;;
45784;SDS011;31489;51.404;5.474;2023-07-02T11:04:28;10.20;;;6.18;;
45784;SDS011;31489;51.404;5.474;2023-07-02T11:06:58;10.57;;;5.97;;
45784;SDS011;31489;51.404;5.474;2023-07-02T11:09:27;12.25;;;6.18;;
45784;SDS011;31489;51.404;5.474;2023-07-02T11:11:53;11.77;;;6.20;;
45784;SDS011;31489;51.404;5.474;2023-07-02T11:16:56;12.60;;;6.60;;
45784;SDS011;31489;51.404;5.474;2023-07-02T11:19:23;18.17;;;7.22;;
45784;SDS011;31489;51.404;5.474;2023-07-02T11:21:53;11.43;;;6.65;;
45784;SDS011;31489;51.404;5.474;2023-07-02T11:24:33;13.27;;;6.85;;
45784;SDS011;31489;51.404;5.474;2023-07-02T11:27:01;14.43;;;7.22;;
45784;SDS011;31489;51.404;5.474;2023-07-02T11:29:29;12.48;;;6.93;;
45784;SDS011;31489;51.404;5.474;2023-07-02T11:32:05;12.73;;;7.00;;
45784;SDS011;31489;51.404;5.474;2023-07-02T11:39:22;13.80;;;7.00;;
45784;SDS011;31489;51.404;5.474;2023-07-02T11:41:47;13.75;;;7.50;;
45784;SDS011;31489;51.404;5.474;2023-07-02T11:44:15;15.13;;;8.05;;
45784;SDS011;31489;51.404;5.474;2023-07-02T11:46:41;14.40;;;7.20;;
45784;SDS011;31489;51.404;5.474;2023-07-02T11:49:06;18.20;;;7.50;;
45784;SDS011;31489;51.404;5.474;2023-07-02T11:51:38;15.63;;;7.72;;
45784;SDS011;31489;51.404;5.474;2023-07-02T11:54:05;20.00;;;9.05;;
45784;SDS011;31489;51.404;5.474;2023-07-02T11:56:31;15.38;;;7.38;;
45784;SDS011;31489;51.404;5.474;2023-07-02T12:01:49;16.35;;;7.45;;
45784;SDS011;31489;51.404;5.474;2023-07-02T12:04:15;14.50;;;7.10;;
45784;SDS011;31489;51.404;5.474;2023-07-02T12:06:41;16.45;;;7.57;;
45784;SDS011;31489;51.404;5.474;2023-07-02T12:09:07;18.00;;;7.57;;
45784;SDS011;31489;51.404;5.474;2023-07-02T12:11:32;13.98;;;7.47;;
45784;SDS011;31489;51.404;5.474;2023-07-02T12:13:58;15.93;;;7.00;;
45784;SDS011;31489;51.404;5.474;2023-07-02T12:16:23;14.02;;;6.43;;
45784;SDS011;31489;51.404;5.474;2023-07-02T12:18:49;11.50;;;6.20;;
45784;SDS011;31489;51.404;5.474;2023-07-02T12:21:15;12.55;;;6.80;;
45784;SDS011;31489;51.404;5.474;2023-07-02T12:23:43;14.70;;;7.00;;
45784;SDS011;31489;51.404;5.474;2023-07-02T12:26:08;10.80;;;6.22;;
45784;SDS011;31489;51.404;5.474;2023-07-02T12:28:34;15.15;;;6.82;;
45784;SDS011;31489;51.404;5.474;2023-07-02T12:30:59;17.85;;;6.80;;
45784;SDS011;31489;51.404;5.474;2023-07-02T12:33:27;12.32;;;6.35;;
45784;SDS011;31489;51.404;5.474;2023-07-02T12:35:53;13.77;;;6.85;;
45784;SDS011;31489;51.404;5.474;2023-07-02T12:38:18;12.05;;;6.28;;
45784;SDS011;31489;51.404;5.474;2023-07-02T12:40:47;15.07;;;6.85;;
45784;SDS011;31489;51.404;5.474;2023-07-02T12:43:13;12.10;;;5.93;;
45784;SDS011;31489;51.404;5.474;2023-07-02T12:45:39;11.88;;;5.85;;
45784;SDS011;31489;51.404;5.474;2023-07-02T12:48:05;11.15;;;5.82;;
45784;SDS011;31489;51.404;5.474;2023-07-02T12:50:30;12.75;;;5.80;;
45784;SDS011;31489;51.404;5.474;2023-07-02T12:52:56;13.95;;;5.78;;
45784;SDS011;31489;51.404;5.474;2023-07-02T12:55:22;11.38;;;5.57;;
45784;SDS011;31489;51.404;5.474;2023-07-02T12:57:47;10.90;;;5.55;;
45784;SDS011;31489;51.404;5.474;2023-07-02T13:00:13;9.35;;;5.18;;
45784;SDS011;31489;51.404;5.474;2023-07-02T13:02:39;10.40;;;5.32;;
45784;SDS011;31489;51.404;5.474;2023-07-02T13:05:05;10.82;;;5.63;;
45784;SDS011;31489;51.404;5.474;2023-07-02T13:07:30;10.82;;;5.28;;
45784;SDS011;31489;51.404;5.474;2023-07-02T13:09:56;9.80;;;5.53;;
45784;SDS011;31489;51.404;5.474;2023-07-02T13:12:22;12.05;;;5.47;;
45784;SDS011;31489;51.404;5.474;2023-07-02T13:14:47;14.27;;;6.55;;
45784;SDS011;31489;51.404;5.474;2023-07-02T13:17:13;8.90;;;5.38;;
45784;SDS011;31489;51.404;5.474;2023-07-02T13:19:39;12.63;;;6.25;;
45784;SDS011;31489;51.404;5.474;2023-07-02T13:22:04;11.63;;;5.57;;
45784;SDS011;31489;51.404;5.474;2023-07-02T13:24:33;11.20;;;5.53;;
45784;SDS011;31489;51.404;5.474;2023-07-02T13:27:02;11.50;;;5.65;;
45784;SDS011;31489;51.404;5.474;2023-07-02T13:29:30;12.77;;;5.50;;
45784;SDS011;31489;51.404;5.474;2023-07-02T13:31:56;10.13;;;5.18;;
45784;SDS011;31489;51.404;5.474;2023-07-02T13:34:21;12.10;;;5.80;;
45784;SDS011;31489;51.404;5.474;2023-07-02T13:36:47;10.68;;;5.20;;
45784;SDS011;31489;51.404;5.474;2023-07-02T13:39:13;8.98;;;5.10;;
45784;SDS011;31489;51.404;5.474;2023-07-02T13:41:38;10.65;;;5.20;;
45784;SDS011;31489;51.404;5.474;2023-07-02T13:44:04;11.32;;;5.18;;
45784;SDS011;31489;51.404;5.474;2023-07-02T13:46:32;11.20;;;4.82;;
45784;SDS011;31489;51.404;5.474;2023-07-02T13:48:58;10.27;;;4.72;;
45784;SDS011;31489;51.404;5.474;2023-07-02T13:51:24;14.70;;;5.63;;
45784;SDS011;31489;51.404;5.474;2023-07-02T13:53:49;14.95;;;5.45;;
45784;SDS011;31489;51.404;5.474;2023-07-02T13:56:15;10.65;;;4.85;;
45784;SDS011;31489;51.404;5.474;2023-07-02T13:59:14;11.25;;;5.20;;
45784;SDS011;31489;51.404;5.474;2023-07-02T14:01:32;12.52;;;5.30;;
45784;SDS011;31489;51.404;5.474;2023-07-02T14:03:59;9.63;;;5.20;;
45784;SDS011;31489;51.404;5.474;2023-07-02T14:06:25;9.82;;;4.68;;
45784;SDS011;31489;51.404;5.474;2023-07-02T14:08:51;9.43;;;4.97;;
45784;SDS011;31489;51.404;5.474;2023-07-02T14:11:17;11.93;;;5.82;;
45784;SDS011;31489;51.404;5.474;2023-07-02T14:13:43;9.38;;;4.95;;
45784;SDS011;31489;51.404;5.474;2023-07-02T14:16:09;8.93;;;5.32;;
45784;SDS011;31489;51.404;5.474;2023-07-02T14:18:35;12.20;;;5.80;;
45784;SDS011;31489;51.404;5.474;2023-07-02T14:21:00;8.73;;;4.90;;
45784;SDS011;31489;51.404;5.474;2023-07-02T14:23:28;9.50;;;5.10;;
45784;SDS011;31489;51.404;5.474;2023-07-02T14:25:54;12.60;;;5.32;;
45784;SDS011;31489;51.404;5.474;2023-07-02T14:28:19;10.27;;;5.15;;
45784;SDS011;31489;51.404;5.474;2023-07-02T14:30:45;8.85;;;5.18;;
45784;SDS011;31489;51.404;5.474;2023-07-02T14:33:11;12.25;;;5.05;;
45784;SDS011;31489;51.404;5.474;2023-07-02T14:35:38;10.98;;;5.25;;
45784;SDS011;31489;51.404;5.474;2023-07-02T14:38:05;12.05;;;5.68;;
45784;SDS011;31489;51.404;5.474;2023-07-02T14:40:31;10.02;;;5.05;;
45784;SDS011;31489;51.404;5.474;2023-07-02T14:42:57;8.10;;;4.45;;